Time;durP1;ratioP1;P1;durP2;ratioP2;P2;SDS_P1;SDS_P2;PMS_P1;PMS_P2;Temp;Humidity;BMP_temperature;BMP_pressure;BME280_temperature;BME280_humidity;BME280_pressure;Samples;Min_cycle;Max_cycle;Signal;HPM_P1;HPM_P2
2022/03/24 00:01:49;;;;;;;1999.90;999.90;;;;;;;10.53;37.92;165207.00;5008308;28;20465;-68
2022/03/24 00:04:16;;;;;;;1999.90;999.90;;;;;;;10.45;37.43;165184.94;4990618;28;20050;-68
2022/03/24 00:06:42;;;;;;;1999.90;999.90;;;;;;;10.49;37.22;165197.31;5008995;28;20089;-69
2022/03/24 00:09:09;;;;;;;1999.90;999.90;;;;;;;10.38;37.90;165167.06;5004400;28;20054;-68
2022/03/24 00:11:37;;;;;;;1999.90;999.90;;;;;;;10.37;37.40;165165.66;4996225;28;20054;-68
2022/03/24 00:14:04;;;;;;;1999.90;999.90;;;;;;;10.36;37.84;165161.53;5008743;28;20081;-68
2022/03/24 00:16:30;;;;;;;1999.90;999.90;;;;;;;10.26;37.81;165135.34;4993435;28;20081;-68
2022/03/24 00:18:57;;;;;;;1999.90;999.90;;;;;;;10.34;36.70;165157.41;5001090;28;20071;-68
2022/03/24 00:21:24;;;;;;;1999.90;999.90;;;;;;;10.37;37.30;165165.66;4997506;28;20077;-68
2022/03/24 00:23:50;;;;;;;1999.90;999.90;;;;;;;10.29;37.36;165143.59;4999168;28;20049;-68
2022/03/24 00:26:17;;;;;;;1999.90;999.90;;;;;;;10.07;38.04;165084.38;5005641;28;20086;-68
2022/03/24 00:28:44;;;;;;;1999.90;999.90;;;;;;;9.67;39.31;164977.00;4983196;28;20440;-68
2022/03/24 00:31:11;;;;;;;1999.90;999.90;;;;;;;9.57;40.28;164949.47;5005004;28;20098;-68
2022/03/24 00:33:38;;;;;;;1999.90;999.90;;;;;;;9.86;38.79;165029.31;4996403;28;20103;-68
2022/03/24 00:36:05;;;;;;;1999.90;999.90;;;;;;;9.69;39.08;164983.91;5007658;28;20127;-68
2022/03/24 00:38:32;;;;;;;1999.90;999.90;;;;;;;9.76;39.57;165001.78;5003256;28;20526;-68
2022/03/24 00:40:58;;;;;;;1999.90;999.90;;;;;;;9.08;42.67;164818.75;5004609;28;20344;-68
2022/03/24 00:43:25;;;;;;;1999.90;999.90;;;;;;;9.05;42.28;164811.91;5006700;28;20115;-68
2022/03/24 00:45:52;;;;;;;1999.90;999.90;;;;;;;9.14;41.40;164835.25;4998233;28;20057;-68
2022/03/24 00:48:19;;;;;;;1999.90;999.90;;;;;;;9.23;40.55;164860.06;5007149;28;20072;-68
2022/03/24 00:50:45;;;;;;;1999.90;999.90;;;;;;;9.21;42.36;164853.16;4991868;28;20454;-68
2022/03/24 00:53:12;;;;;;;1999.90;999.90;;;;;;;9.00;41.88;164798.13;5008230;28;20432;-68
2022/03/24 00:55:39;;;;;;;1999.90;999.90;;;;;;;9.14;41.92;164836.66;5006268;28;20046;-68
2022/03/24 00:58:06;;;;;;;1999.90;999.90;;;;;;;8.95;41.09;164785.75;5005931;28;20097;-68
2022/03/24 01:00:33;;;;;;;1999.90;999.90;;;;;;;9.25;41.31;164864.19;5010047;28;20155;-68
2022/03/24 01:03:00;;;;;;;1999.90;999.90;;;;;;;9.36;41.08;164893.06;4992518;28;20052;-68
2022/03/24 01:05:27;;;;;;;1999.90;999.90;;;;;;;9.39;39.24;164902.69;4999639;28;20053;-68
2022/03/24 01:07:55;;;;;;;1999.90;999.90;;;;;;;8.98;41.27;164792.63;5000705;28;20053;-68
2022/03/24 01:10:22;;;;;;;1999.90;999.90;;;;;;;9.24;40.94;164862.78;4996187;28;20145;-68
2022/03/24 01:12:49;;;;;;;1999.90;999.90;;;;;;;9.24;41.59;164861.41;5002327;28;20078;-68
2022/03/24 01:15:19;;;;;;;1999.90;999.90;;;;;;;9.39;41.49;164902.69;4988518;28;20050;-68
2022/03/24 01:17:47;;;;;;;1999.90;999.90;;;;;;;9.44;41.33;164915.09;5002647;28;20081;-68
2022/03/24 01:20:15;;;;;;;1999.90;999.90;;;;;;;9.50;41.94;164932.97;4996480;28;20045;-68
2022/03/24 01:22:42;;;;;;;1999.90;999.90;;;;;;;9.42;42.26;164910.94;5007186;28;20085;-68
2022/03/24 01:25:09;;;;;;;1999.90;999.90;;;;;;;9.45;42.71;164919.25;5007732;28;20163;-68
2022/03/24 01:27:38;;;;;;;1999.90;999.90;;;;;;;9.47;42.73;164924.72;4994981;28;20112;-68
2022/03/24 01:30:09;;;;;;;1999.90;999.90;;;;;;;9.32;43.59;164883.44;5010367;28;20056;-68
2022/03/24 01:32:39;;;;;;;1999.90;999.90;;;;;;;9.29;43.64;164876.56;4982664;28;20491;-68
2022/03/24 01:35:07;;;;;;;1999.90;999.90;;;;;;;9.30;43.58;164879.31;5002399;28;20050;-68
2022/03/24 01:37:35;;;;;;;1999.90;999.90;;;;;;;9.18;43.73;164844.91;4994389;28;20153;-69
2022/03/24 01:40:04;;;;;;;1999.90;999.90;;;;;;;9.04;44.63;164809.13;5007833;28;20073;-68
2022/03/24 01:42:34;;;;;;;1999.90;999.90;;;;;;;8.91;44.86;164773.38;4983739;28;20170;-68
2022/03/24 01:45:01;;;;;;;1999.90;999.90;;;;;;;8.79;44.72;164741.72;4989491;28;20077;-68
2022/03/24 01:47:28;;;;;;;1999.90;999.90;;;;;;;8.93;44.86;164780.25;5003733;28;21564;-68
2022/03/24 01:49:58;;;;;;;1999.90;999.90;;;;;;;9.06;44.50;164814.63;4975953;28;20084;-68
2022/03/24 01:52:26;;;;;;;1999.90;999.90;;;;;;;9.05;44.66;164811.91;5003995;28;20212;-68
2022/03/24 01:54:55;;;;;;;1999.90;999.90;;;;;;;8.80;45.02;164745.84;5008211;28;20061;-68
2022/03/24 01:57:27;;;;;;;1999.90;999.90;;;;;;;8.60;45.81;164690.81;5003512;28;20058;-68
2022/03/24 01:59:54;;;;;;;1999.90;999.90;;;;;;;8.04;47.80;164540.84;5002922;28;20081;-68
2022/03/24 02:02:21;;;;;;;1999.90;999.90;;;;;;;7.79;48.26;164473.53;5007716;28;20512;-68
2022/03/24 02:04:48;;;;;;;1999.90;999.90;;;;;;;7.84;48.47;164487.25;5011545;28;20364;-68
2022/03/24 02:07:14;;;;;;;1999.90;999.90;;;;;;;7.72;48.27;164455.66;5003384;28;20401;-68
2022/03/24 02:09:41;;;;;;;1999.90;999.90;;;;;;;7.73;48.58;164459.78;5008045;28;20418;-68
2022/03/24 02:12:11;;;;;;;1999.90;999.90;;;;;;;7.37;49.93;164363.56;5012327;28;20085;-68
2022/03/24 02:14:39;;;;;;;1999.90;999.90;;;;;;;7.91;48.19;164506.53;4998213;28;20063;-68
2022/03/24 02:17:05;;;;;;;1999.90;999.90;;;;;;;7.50;49.07;164396.53;5022765;28;20073;-68
2022/03/24 02:19:34;;;;;;;1999.90;999.90;;;;;;;7.41;49.75;164373.16;5001893;28;20644;-68
2022/03/24 02:22:06;;;;;;;1999.90;999.90;;;;;;;6.17;52.92;164042.09;5008420;28;20451;-68
2022/03/24 02:24:37;;;;;;;1999.90;999.90;;;;;;;6.70;51.62;164184.94;5000709;28;20127;-68
2022/03/24 02:27:04;;;;;;;1999.90;999.90;;;;;;;7.07;51.21;164281.09;5009428;28;20060;-68
2022/03/24 02:29:30;;;;;;;1999.90;999.90;;;;;;;7.51;50.12;164399.31;5011291;28;20107;-68
2022/03/24 02:31:57;;;;;;;1999.90;999.90;;;;;;;7.68;49.14;164444.63;5012389;28;20049;-68
2022/03/24 02:37:12;;;;;;;1999.90;999.90;;;;;;;7.37;50.01;164363.56;5008671;28;20080;-68
2022/03/24 02:39:41;;;;;;;1999.90;999.90;;;;;;;7.58;49.42;164418.56;5008467;28;20042;-68
2022/03/24 02:42:14;;;;;;;1999.90;999.90;;;;;;;7.42;49.26;164374.56;5002006;28;20143;-67
2022/03/24 02:44:43;;;;;;;1999.90;999.90;;;;;;;7.19;49.77;164315.47;5003226;28;20062;-68
2022/03/24 02:47:11;;;;;;;1999.90;999.90;;;;;;;7.28;50.03;164338.84;5010570;28;20077;-68
2022/03/24 02:49:39;;;;;;;1999.90;999.90;;;;;;;7.50;49.20;164397.94;5001301;28;20153;-68
2022/03/24 02:52:07;;;;;;;1999.90;999.90;;;;;;;7.57;49.17;164415.78;5010531;28;20049;-68
2022/03/24 02:54:35;;;;;;;1999.90;999.90;;;;;;;7.74;48.94;164461.13;5001411;28;20528;-68
2022/03/24 02:57:02;;;;;;;1999.90;999.90;;;;;;;7.93;48.56;164512.00;5008083;28;20124;-68
2022/03/24 02:59:29;;;;;;;1999.90;999.90;;;;;;;7.77;48.54;164469.41;4998082;28;20084;-68
2022/03/24 03:01:59;;;;;;;1999.90;999.90;;;;;;;7.70;48.83;164451.53;5012351;28;20084;-68
2022/03/24 03:04:28;;;;;;;1999.90;999.90;;;;;;;7.33;49.70;164352.56;5008220;28;20046;-68
2022/03/24 03:06:55;;;;;;;1999.90;999.90;;;;;;;7.07;50.72;164281.09;4999347;28;20473;-69
2022/03/24 03:09:22;;;;;;;1999.90;999.90;;;;;;;7.25;50.16;164329.19;5012195;28;20054;-67
2022/03/24 03:11:50;;;;;;;1999.90;999.90;;;;;;;7.14;50.73;164301.72;4986864;28;20108;-66
2022/03/24 03:14:17;;;;;;;1999.90;999.90;;;;;;;7.49;50.02;164395.19;4996887;28;20058;-66
2022/03/24 03:16:44;;;;;;;1999.90;999.90;;;;;;;7.33;49.93;164352.56;5009525;28;20391;-67
2022/03/24 03:19:17;;;;;;;1999.90;999.90;;;;;;;7.39;50.21;164369.03;4997843;28;20057;-67
2022/03/24 03:21:44;;;;;;;1999.90;999.90;;;;;;;7.46;49.81;164385.53;5005670;28;20050;-67
2022/03/24 03:24:12;;;;;;;1999.90;999.90;;;;;;;7.29;50.29;164341.56;4992646;28;20108;-67
2022/03/24 03:26:39;;;;;;;1999.90;999.90;;;;;;;7.36;50.21;164359.44;5009583;28;20085;-67
2022/03/24 03:29:07;;;;;;;1999.90;999.90;;;;;;;7.23;50.34;164325.06;5000947;28;20139;-67
2022/03/24 03:31:34;;;;;;;1999.90;999.90;;;;;;;7.15;51.27;164303.13;5008014;28;20084;-67
2022/03/24 03:34:07;;;;;;;1999.90;999.90;;;;;;;7.50;49.81;164396.53;5003585;28;20050;-67
2022/03/24 03:36:35;;;;;;;1999.90;999.90;;;;;;;7.34;49.85;164355.31;5000450;28;20439;-67
2022/03/24 03:39:02;;;;;;;1999.90;999.90;;;;;;;7.13;51.08;164297.59;5003218;28;20041;-67
2022/03/24 03:41:29;;;;;;;1999.90;999.90;;;;;;;7.21;51.01;164320.94;4991827;28;20054;-66
2022/03/24 03:43:55;;;;;;;1999.90;999.90;;;;;;;6.76;52.24;164198.66;5008943;28;20077;-67
2022/03/24 03:46:25;;;;;;;1999.90;999.90;;;;;;;6.46;53.23;164120.41;4995536;28;20065;-67
2022/03/24 03:48:52;;;;;;;1999.90;999.90;;;;;;;6.67;52.56;164176.72;5007568;28;20407;-67
2022/03/24 03:51:18;;;;;;;1999.90;999.90;;;;;;;6.51;52.84;164132.75;5007486;28;20069;-67
2022/03/24 03:53:45;;;;;;;1999.90;999.90;;;;;;;6.59;53.28;164153.34;4998374;28;20348;-67
2022/03/24 03:56:12;;;;;;;1999.90;999.90;;;;;;;6.81;52.21;164213.78;4988674;28;20077;-67
2022/03/24 03:58:39;;;;;;;1999.90;999.90;;;;;;;6.65;52.81;164169.81;5000383;28;20062;-67
2022/03/24 04:01:08;;;;;;;1999.90;999.90;;;;;;;6.37;53.18;164095.63;5015831;28;20057;-68
2022/03/24 04:03:39;;;;;;;1999.90;999.90;;;;;;;6.28;53.49;164072.34;5005043;28;20145;-68
2022/03/24 04:06:09;;;;;;;1999.90;999.90;;;;;;;6.54;53.41;164141.00;4998147;28;20042;-68
2022/03/24 04:08:37;;;;;;;1999.90;999.90;;;;;;;6.64;52.54;164168.47;5004026;28;20057;-67
2022/03/24 04:11:07;;;;;;;1999.90;999.90;;;;;;;6.73;52.63;164191.81;5008731;28;20104;-67
2022/03/24 04:13:35;;;;;;;1999.90;999.90;;;;;;;6.98;52.03;164259.16;5002310;28;20050;-67
2022/03/24 04:16:02;;;;;;;1999.90;999.90;;;;;;;7.04;51.31;164274.22;4993082;28;20252;-67
2022/03/24 04:18:29;;;;;;;1999.90;999.90;;;;;;;6.95;51.39;164250.91;5002161;28;20061;-69
2022/03/24 04:20:56;;;;;;;1999.90;999.90;;;;;;;6.94;51.19;164246.78;4998556;28;20073;-66
2022/03/24 04:23:23;;;;;;;1999.90;999.90;;;;;;;6.90;51.10;164237.16;4995874;28;20054;-67
2022/03/24 04:25:50;;;;;;;1999.90;999.90;;;;;;;6.83;52.16;164217.91;5001929;28;20050;-67
2022/03/24 04:28:16;;;;;;;1999.90;999.90;;;;;;;6.70;52.35;164184.94;4998296;28;20049;-67
2022/03/24 04:30:43;;;;;;;1999.90;999.90;;;;;;;6.79;52.07;164206.91;5005334;28;20081;-69
2022/03/24 04:33:10;;;;;;;1999.90;999.90;;;;;;;6.75;52.51;164195.94;5005586;28;20258;-68
2022/03/24 04:35:38;;;;;;;1999.90;999.90;;;;;;;6.69;51.81;164180.81;4999025;28;20440;-68
2022/03/24 04:38:05;;;;;;;1999.90;999.90;;;;;;;6.54;53.13;164141.00;4991234;28;20341;-68
2022/03/24 04:40:32;;;;;;;1999.90;999.90;;;;;;;6.40;52.94;164102.53;4999761;28;20046;-68
2022/03/24 04:42:58;;;;;;;1999.90;999.90;;;;;;;6.42;53.14;164109.41;5008202;28;20408;-68
2022/03/24 04:45:27;;;;;;;1999.90;999.90;;;;;;;6.47;53.25;164121.75;4997415;28;20188;-68
2022/03/24 04:47:54;;;;;;;1999.90;999.90;;;;;;;6.62;52.05;164161.59;5008146;28;20095;-68
2022/03/24 04:50:21;;;;;;;1999.90;999.90;;;;;;;6.39;52.00;164099.81;5006160;28;20209;-68
2022/03/24 04:52:48;;;;;;;1999.90;999.90;;;;;;;6.51;51.73;164132.75;4994202;28;20100;-68
2022/03/24 04:55:14;;;;;;;1999.90;999.90;;;;;;;6.58;51.30;164150.59;4999314;28;20077;-68
2022/03/24 04:57:42;;;;;;;1999.90;999.90;;;;;;;6.69;51.24;164180.81;4998645;28;20243;-68
2022/03/24 05:00:10;;;;;;;1999.90;999.90;;;;;;;6.37;52.69;164094.28;5008988;28;20092;-68
2022/03/24 05:02:39;;;;;;;1999.90;999.90;;;;;;;6.27;52.97;164069.56;4998411;28;20065;-68
2022/03/24 05:05:06;;;;;;;1999.90;999.90;;;;;;;6.52;51.95;164135.50;5005490;28;20070;-68
2022/03/24 05:07:33;;;;;;;1999.90;999.90;;;;;;;6.27;51.81;164068.22;5014524;28;20057;-68
2022/03/24 05:09:59;;;;;;;1999.90;999.90;;;;;;;6.13;52.47;164032.50;4996898;28;20096;-67
2022/03/24 05:12:26;;;;;;;1999.90;999.90;;;;;;;6.20;52.45;164050.34;5006343;28;20412;-68
2022/03/24 05:14:53;;;;;;;1999.90;999.90;;;;;;;6.35;51.68;164090.16;4995971;28;20092;-68
2022/03/24 05:17:19;;;;;;;1999.90;999.90;;;;;;;6.51;50.86;164132.75;5001024;28;20077;-68
2022/03/24 05:19:48;;;;;;;1999.90;999.90;;;;;;;6.54;50.39;164141.00;5004084;28;20120;-68
2022/03/24 05:22:16;;;;;;;1999.90;999.90;;;;;;;6.53;50.27;164138.22;4995499;28;20050;-68
2022/03/24 05:24:43;;;;;;;1999.90;999.90;;;;;;;6.51;50.29;164132.75;5005669;28;20049;-68
2022/03/24 05:27:11;;;;;;;1999.90;999.90;;;;;;;6.58;50.29;164152.00;4994646;28;20045;-68
2022/03/24 05:29:38;;;;;;;1999.90;999.90;;;;;;;6.74;49.92;164193.19;5003458;28;20088;-68
2022/03/24 05:32:05;;;;;;;1999.90;999.90;;;;;;;6.94;49.47;164248.16;4991313;28;20104;-68
2022/03/24 05:34:32;;;;;;;1999.90;999.90;;;;;;;7.05;49.37;164278.34;5002901;28;20049;-68
2022/03/24 05:36:59;;;;;;;1999.90;999.90;;;;;;;7.32;49.76;164349.78;5003074;28;20184;-68
2022/03/24 05:39:26;;;;;;;1999.90;999.90;;;;;;;7.45;49.14;164382.81;4996516;28;20081;-68
2022/03/24 05:41:54;;;;;;;1999.90;999.90;;;;;;;7.29;49.12;164341.56;4989704;28;20054;-68
2022/03/24 05:44:20;;;;;;;1999.90;999.90;;;;;;;7.43;48.99;164377.28;4985753;28;20136;-68
2022/03/24 05:46:47;;;;;;;1999.90;999.90;;;;;;;7.26;49.58;164333.31;5003743;28;20049;-68
2022/03/24 05:49:17;;;;;;;1999.90;999.90;;;;;;;7.04;49.03;164275.63;5002829;28;20521;-68
2022/03/24 05:51:44;;;;;;;1999.90;999.90;;;;;;;7.20;48.73;164318.19;5006866;28;20157;-68
2022/03/24 05:54:13;;;;;;;1999.90;999.90;;;;;;;7.41;48.80;164373.16;4997686;28;20328;-68
2022/03/24 05:56:40;;;;;;;1999.90;999.90;;;;;;;7.61;48.76;164425.38;4999557;28;20470;-68
2022/03/24 05:59:07;;;;;;;1999.90;999.90;;;;;;;7.81;47.70;164479.03;5008603;28;20077;-68
2022/03/24 06:01:34;;;;;;;1999.90;999.90;;;;;;;7.96;46.64;164518.88;5000478;28;20064;-68
2022/03/24 06:04:02;;;;;;;1999.90;999.90;;;;;;;7.96;46.21;164520.25;5011658;28;20398;-68
2022/03/24 06:06:30;;;;;;;1999.90;999.90;;;;;;;8.18;46.17;164579.38;5000299;28;20054;-68
2022/03/24 06:08:57;;;;;;;1999.90;999.90;;;;;;;8.05;45.53;164545.03;5002634;28;20053;-68
2022/03/24 06:11:24;;;;;;;1999.90;999.90;;;;;;;8.26;45.77;164601.41;5010780;28;20301;-68
2022/03/24 06:13:51;;;;;;;1999.90;999.90;;;;;;;8.58;44.21;164686.69;5002144;28;20054;-68
2022/03/24 06:16:18;;;;;;;1999.90;999.90;;;;;;;8.77;44.69;164737.59;5009375;28;20122;-69
2022/03/24 06:18:45;;;;;;;1999.90;999.90;;;;;;;8.60;43.12;164690.81;4989042;28;20466;-68
2022/03/24 06:21:13;;;;;;;1999.90;999.90;;;;;;;8.89;44.09;164769.25;5003245;28;20470;-68
2022/03/24 06:23:40;;;;;;;1999.90;999.90;;;;;;;9.13;44.81;164832.53;5005261;28;20149;-68
2022/03/24 06:26:08;;;;;;;1999.90;999.90;;;;;;;9.14;43.05;164836.66;4997439;28;20431;-68
2022/03/24 06:28:35;;;;;;;1999.90;999.90;;;;;;;8.85;43.28;164756.88;5007367;28;20054;-68
2022/03/24 06:31:01;;;;;;;1999.90;999.90;;;;;;;8.72;43.41;164722.47;4994764;28;20249;-68
2022/03/24 06:33:28;;;;;;;1999.90;999.90;;;;;;;8.63;43.65;164700.47;5003362;28;20191;-68
2022/03/24 06:35:55;;;;;;;1999.90;999.90;;;;;;;8.72;44.58;164723.81;4985964;28;20074;-68
2022/03/24 06:38:21;;;;;;;1999.90;999.90;;;;;;;8.84;44.49;164754.09;5006928;28;20085;-68
2022/03/24 06:40:48;;;;;;;1999.90;999.90;;;;;;;8.60;43.74;164692.22;5017772;28;20124;-68
2022/03/24 06:43:14;;;;;;;1999.90;999.90;;;;;;;9.10;44.07;164825.63;4998813;28;20132;-68
2022/03/24 06:45:41;;;;;;;1999.90;999.90;;;;;;;8.45;44.99;164652.28;5005081;28;20046;-68
2022/03/24 06:48:07;;;;;;;1999.90;999.90;;;;;;;8.62;44.20;164697.72;4999528;28;20064;-68
2022/03/24 06:50:35;;;;;;;1999.90;999.90;;;;;;;9.34;42.77;164890.31;5010475;28;20077;-68
2022/03/24 06:53:03;;;;;;;1999.90;999.90;;;;;;;10.09;42.16;165089.88;5009574;28;20045;-68
2022/03/24 06:55:31;;;;;;;1999.90;999.90;;;;;;;9.92;42.05;165044.47;4999171;28;20173;-68
2022/03/24 06:57:57;;;;;;;1999.90;999.90;;;;;;;9.87;42.42;165032.06;5003889;28;20054;-68
2022/03/24 07:00:24;;;;;;;1999.90;999.90;;;;;;;10.18;41.54;165114.69;4998953;28;20085;-68
2022/03/24 07:02:51;;;;;;;1999.90;999.90;;;;;;;10.43;41.82;165179.44;5010607;28;20092;-68
2022/03/24 07:05:17;;;;;;;1999.90;999.90;;;;;;;9.75;43.42;164999.06;4998510;28;20398;-68
2022/03/24 07:07:44;;;;;;;1999.90;999.90;;;;;;;10.14;42.80;165103.66;5006461;28;20108;-68
2022/03/24 07:10:11;;;;;;;1999.90;999.90;;;;;;;10.45;41.96;165186.34;5016339;28;20466;-67
2022/03/24 07:12:38;;;;;;;1999.90;999.90;;;;;;;9.78;42.34;165005.91;4992654;28;20150;-67
2022/03/24 07:15:07;;;;;;;1999.90;999.90;;;;;;;9.98;40.83;165059.63;5004009;28;20144;-67
2022/03/24 07:17:35;;;;;;;1999.90;999.90;;;;;;;10.39;41.79;165169.78;4983899;28;20053;-68
2022/03/24 07:20:04;;;;;;;1999.90;999.90;;;;;;;10.05;40.46;165078.91;5009621;28;20151;-67
2022/03/24 07:22:32;;;;;;;1999.90;999.90;;;;;;;10.57;39.45;165219.38;5008212;28;20061;-67
2022/03/24 07:24:59;;;;;;;1999.90;999.90;;;;;;;9.41;40.86;164908.22;5006110;28;20128;-66
2022/03/24 07:27:26;;;;;;;1999.90;999.90;;;;;;;10.07;39.96;165083.03;5009583;28;20140;-67
2022/03/24 07:29:58;;;;;;;1999.90;999.90;;;;;;;10.53;38.66;165208.34;4998344;28;20091;-67
2022/03/24 07:32:24;;;;;;;1999.90;999.90;;;;;;;10.73;38.93;165260.69;5010007;28;20081;-67
2022/03/24 07:34:51;;;;;;;1999.90;999.90;;;;;;;11.41;37.19;165442.53;4992049;28;20084;-67
2022/03/24 07:37:17;;;;;;;1999.90;999.90;;;;;;;11.10;38.30;165359.88;5005007;28;20408;-67
2022/03/24 07:39:44;;;;;;;1999.90;999.90;;;;;;;11.14;38.38;165370.91;5015089;28;20054;-67
2022/03/24 07:42:10;;;;;;;1999.90;999.90;;;;;;;11.78;37.33;165541.78;5000354;28;20049;-67
2022/03/24 07:44:37;;;;;;;1999.90;999.90;;;;;;;11.81;37.53;165550.03;5009688;28;20401;-67
2022/03/24 07:47:04;;;;;;;1999.90;999.90;;;;;;;12.17;36.43;165646.56;4999354;28;20050;-67
2022/03/24 07:49:31;;;;;;;1999.90;999.90;;;;;;;12.83;35.42;165824.47;4997696;28;20280;-67
2022/03/24 07:51:57;;;;;;;1999.90;999.90;;;;;;;13.30;36.10;165949.97;5000304;28;20408;-67
2022/03/24 07:54:49;;;;;;;1999.90;999.90;;;;;;;12.22;36.91;165660.38;5001675;28;20054;-67
2022/03/24 07:57:16;;;;;;;1999.90;999.90;;;;;;;12.66;37.04;165778.94;5003731;28;20058;-67
2022/03/24 07:59:42;;;;;;;1999.90;999.90;;;;;;;13.24;35.65;165932.06;4998769;28;20080;-67
2022/03/24 08:02:09;;;;;;;1999.90;999.90;;;;;;;12.89;37.35;165839.59;5009202;28;20046;-67
2022/03/24 08:04:36;;;;;;;1999.90;999.90;;;;;;;13.03;36.91;165878.22;4996778;28;20070;-67
2022/03/24 08:07:02;;;;;;;1999.90;999.90;;;;;;;12.23;37.84;165663.09;5008924;28;20404;-67
2022/03/24 08:09:32;;;;;;;1999.90;999.90;;;;;;;11.22;38.91;165392.91;4995142;28;20477;-67
2022/03/24 08:11:59;;;;;;;1999.90;999.90;;;;;;;12.87;38.45;165834.09;5011127;28;20042;-67
2022/03/24 08:14:26;;;;;;;1999.90;999.90;;;;;;;12.69;38.06;165787.19;5006398;28;20447;-67
2022/03/24 08:16:53;;;;;;;1999.90;999.90;;;;;;;13.62;37.15;166035.59;4992897;28;20354;-67
2022/03/24 08:19:19;;;;;;;1999.90;999.90;;;;;;;13.66;36.81;166046.56;5008655;28;20054;-67
2022/03/24 08:21:46;;;;;;;1999.90;999.90;;;;;;;12.61;37.53;165765.16;4994278;28;20085;-67
2022/03/24 08:24:12;;;;;;;1999.90;999.90;;;;;;;12.36;37.27;165696.22;5009177;28;20050;-67
2022/03/24 08:26:39;;;;;;;1999.90;999.90;;;;;;;12.74;37.88;165798.25;5008259;28;20057;-67
2022/03/24 08:29:06;;;;;;;1999.90;999.90;;;;;;;13.92;37.23;166115.63;4990311;28;20144;-67
2022/03/24 08:31:33;;;;;;;1999.90;999.90;;;;;;;13.78;35.61;166076.97;5005884;28;20100;-67
2022/03/24 08:34:00;;;;;;;1999.90;999.90;;;;;;;14.08;35.52;166159.78;4999191;28;20160;-67
2022/03/24 08:36:27;;;;;;;1999.90;999.90;;;;;;;14.44;35.31;166256.38;5008133;28;20076;-66
2022/03/24 08:38:53;;;;;;;1999.90;999.90;;;;;;;14.93;33.31;166386.19;5003602;28;20072;-67
2022/03/24 08:41:20;;;;;;;1999.90;999.90;;;;;;;13.42;35.29;165980.38;5012861;28;20065;-67
2022/03/24 08:43:46;;;;;;;1999.90;999.90;;;;;;;13.46;35.37;165991.44;5005524;28;20107;-66
2022/03/24 08:46:13;;;;;;;1999.90;999.90;;;;;;;14.06;35.97;166152.88;4996647;28;20081;-67
2022/03/24 08:48:40;;;;;;;1999.90;999.90;;;;;;;13.38;36.07;165972.09;5004069;28;20375;-67
2022/03/24 08:51:11;;;;;;;1999.90;999.90;;;;;;;14.65;35.76;166311.66;4999888;28;20455;-67
2022/03/24 08:53:38;;;;;;;1999.90;999.90;;;;;;;15.33;32.75;166493.91;5002448;28;20447;-67
2022/03/24 08:56:05;;;;;;;1999.90;999.90;;;;;;;15.55;33.18;166551.97;4994832;28;20152;-66
2022/03/24 08:58:31;;;;;;;1999.90;999.90;;;;;;;14.30;35.00;166217.72;4999087;28;20050;-67
2022/03/24 09:00:58;;;;;;;1999.90;999.90;;;;;;;13.62;34.58;166035.59;5009700;28;20050;-66
2022/03/24 09:03:24;;;;;;;1999.90;999.90;;;;;;;14.77;33.95;166344.78;4996688;28;20050;-67
2022/03/24 09:05:51;;;;;;;1999.90;999.90;;;;;;;14.60;33.95;166297.78;5009050;28;20085;-67
2022/03/24 09:08:17;;;;;;;1999.90;999.90;;;;;;;13.84;34.29;166094.88;4998946;28;20111;-67
2022/03/24 09:10:47;;;;;;;1999.90;999.90;;;;;;;14.61;35.52;166301.97;5003560;28;20090;-67
2022/03/24 09:13:13;;;;;;;1999.90;999.90;;;;;;;15.77;31.72;166612.72;5002173;28;20127;-67
2022/03/24 09:15:40;;;;;;;1999.90;999.90;;;;;;;16.43;32.67;166788.28;4996721;28;20093;-67
2022/03/24 09:18:06;;;;;;;1999.90;999.90;;;;;;;15.74;32.90;166604.44;5006643;28;20104;-67
2022/03/24 09:20:33;;;;;;;1999.90;999.90;;;;;;;15.18;33.12;166453.88;4998074;28;20068;-67
2022/03/24 09:22:59;;;;;;;1999.90;999.90;;;;;;;15.97;32.77;166665.28;5007334;28;20046;-67
2022/03/24 09:25:26;;;;;;;1999.90;999.90;;;;;;;16.45;32.11;166795.22;4991642;28;20401;-67
2022/03/24 09:27:53;;;;;;;1999.90;999.90;;;;;;;16.51;32.30;166811.78;4997380;28;20129;-67
2022/03/24 09:30:20;;;;;;;1999.90;999.90;;;;;;;16.17;31.79;166719.19;4997715;28;20046;-67
2022/03/24 09:32:48;;;;;;;1999.90;999.90;;;;;;;17.21;30.92;166999.84;5003067;28;20409;-68
2022/03/24 09:35:15;;;;;;;1999.90;999.90;;;;;;;16.71;30.96;166864.31;5011130;28;20081;-68
2022/03/24 09:37:42;;;;;;;1999.90;999.90;;;;;;;17.02;31.72;166947.31;5002884;28;20058;-68
2022/03/24 09:40:10;;;;;;;1999.90;999.90;;;;;;;17.05;30.31;166956.97;5019275;28;20427;-69
2022/03/24 09:42:37;;;;;;;1999.90;999.90;;;;;;;16.18;32.09;166723.34;4985327;28;20144;-68
2022/03/24 09:45:05;;;;;;;1999.90;999.90;;;;;;;16.35;33.22;166767.56;5004244;28;20053;-68
2022/03/24 09:47:33;;;;;;;1999.90;999.90;;;;;;;17.12;32.72;166973.56;5010187;28;20053;-68
2022/03/24 09:50:00;;;;;;;1999.90;999.90;;;;;;;17.33;31.44;167030.25;4984600;28;20053;-69
2022/03/24 09:52:26;;;;;;;1999.90;999.90;;;;;;;17.15;30.93;166983.25;5011037;28;20089;-68
2022/03/24 09:54:54;;;;;;;1999.90;999.90;;;;;;;17.67;31.27;167122.94;5003398;28;20049;-68
2022/03/24 09:57:21;;;;;;;1999.90;999.90;;;;;;;17.40;30.86;167051.03;5007454;28;20108;-68
2022/03/24 09:59:48;;;;;;;1999.90;999.90;;;;;;;17.48;31.03;167070.41;5015731;28;20046;-68
2022/03/24 10:02:15;;;;;;;1999.90;999.90;;;;;;;18.27;30.71;167284.81;4998330;28;20050;-68
2022/03/24 10:05:08;;;;;;;1999.90;999.90;;;;;;;17.62;30.93;167109.09;5006698;28;20085;-69
2022/03/24 10:07:45;;;;;;;1999.90;999.90;;;;;;;17.92;30.11;167190.78;4996693;28;20605;-67
2022/03/24 10:10:26;;;;;;;1999.90;999.90;;;;;;;17.38;32.03;167045.47;5013630;28;20050;-66
2022/03/24 10:12:53;;;;;;;1999.90;999.90;;;;;;;17.01;31.12;166944.53;4992898;28;20061;-66
2022/03/24 10:15:20;;;;;;;1999.90;999.90;;;;;;;17.20;30.78;166995.69;5010354;28;20049;-67
2022/03/24 10:17:54;;;;;;;1999.90;999.90;;;;;;;16.96;32.21;166930.72;5005076;28;20061;-67
2022/03/24 10:20:22;;;;;;;1999.90;999.90;;;;;;;17.31;31.01;167024.72;5009376;28;20107;-67
2022/03/24 10:22:57;;;;;;;1999.90;999.90;;;;;;;17.60;32.61;167104.94;5011033;28;20100;-67
2022/03/24 10:25:25;;;;;;;1999.90;999.90;;;;;;;17.90;30.38;167185.19;4996872;28;20377;-69
2022/03/24 10:28:06;;;;;;;1999.90;999.90;;;;;;;17.54;30.97;167088.34;5010245;28;20049;-67
2022/03/24 10:30:52;;;;;;;1999.90;999.90;;;;;;;17.51;30.97;167080.06;4991729;28;20609;-67
2022/03/24 10:33:34;;;;;;;1999.90;999.90;;;;;;;18.04;30.72;167221.16;5010806;28;20081;-67
2022/03/24 10:36:19;;;;;;;1999.90;999.90;;;;;;;19.04;29.34;167489.66;4999756;28;20050;-67
2022/03/24 10:38:48;;;;;;;1999.90;999.90;;;;;;;18.51;29.90;167348.47;5007189;28;20388;-67
2022/03/24 10:41:25;;;;;;;1999.90;999.90;;;;;;;18.18;27.91;167259.91;4996708;28;20123;-68
2022/03/24 10:43:54;;;;;;;1999.90;999.90;;;;;;;18.33;29.31;167298.69;4990971;28;20571;-68
2022/03/24 10:46:24;;;;;;;1999.90;999.90;;;;;;;17.99;29.01;167208.72;4997303;28;20319;-68
2022/03/24 10:48:52;;;;;;;1999.90;999.90;;;;;;;17.90;28.05;167185.19;4999200;28;20496;-68
2022/03/24 10:51:25;;;;;;;1999.90;999.90;;;;;;;18.80;28.42;167425.94;5005810;28;20104;-68
2022/03/24 10:53:54;;;;;;;1999.90;999.90;;;;;;;19.26;27.06;167550.56;4998172;28;20050;-68
2022/03/24 10:56:29;;;;;;;1999.90;999.90;;;;;;;18.78;28.29;167420.44;5010390;28;20054;-68
2022/03/24 10:58:59;;;;;;;1999.90;999.90;;;;;;;17.09;28.70;166966.69;4996899;28;20678;-67